Hodges Dam (1105, 616) Station Data

Red Flag Warning: No
Fire Weather Zone: 258
SDGE Region: North East
Lat/Lon: 33.044/-117.135

Observations

Time Wind Speed/Gust Temp(F) RH Fuel Moist Fuel Temp(F) Dewpt(F) Tmax(F) Tmin(F) Accum Precip 10-min Precip SL Press(mb)
3/29 8:00am 36 12 G 15 52° 76% - - 45° 56.2° 47.5° - - -
3/29 7:50am 34 10 G 12 53° 62% - - 41° 56.2° 47.5° - - -
3/29 7:40am 35 10 G 13 52° 67% - - 42° 56.2° 47.5° - - -
3/29 7:30am 30 10 G 13 53° 61% - - 40° 56.2° 47.5° - - -
3/29 7:20am 27 10 G 13 51° 68% - - 41° 56.2° 47.5° - - -
3/29 7:10am 37 13 G 16 50° 76% - - 42° 56.2° 47.5° - - -
3/29 7:00am 27 11 G 14 50° 75% - - 42° 56.2° 47.5° - - -
3/29 6:50am 27 12 G 17 48° 84% - - 44° 56.2° 47.5° - - -
3/29 6:40am 33 14 G 18 48° 87% - - 44° 56.2° 47.5° - - -
3/29 6:30am 34 15 G 19 49° 84% - - 44° 56.2° 47.9° - - -
3/29 6:20am 34 13 G 18 50° 79% - - 44° 56.2° 48.7° - - -
3/29 6:10am 35 13 G 16 50° 81% - - 44° 56.2° 48.7° - - -
3/29 6:00am 38 11 G 13 50° 79% - - 44° 56.2° 48.7° - - -
3/29 5:50am 35 11 G 13 51° 76% - - 43° 56.2° 48.7° - - -
3/29 5:40am 34 9 G 11 51° 74% - - 43° 56.2° 48.7° - - -
3/29 5:30am 34 9 G 13 52° 71% - - 43° 56.2° 48.7° - - -
3/29 5:20am 25 14 G 17 51° 75% - - 44° 56.2° 48.7° - - -
3/29 5:10am 16 17 G 22 49° 85% - - 45° 56.2° 48.7° - - -
3/29 5:00am 22 15 G 20 49° 88% - - 46° 56.2° 48.7° - - -
3/29 4:50am 26 15 G 19 50° 85% - - 45° 56.2° 49° - - -
3/29 4:40am 25 15 G 19 50° 82% - - 45° 56.2° 49.2° - - -
3/29 4:30am 19 13 G 19 51° 76% - - 44° 56.2° 49.6° - - -
3/29 4:20am 36 14 G 17 50° 83% - - 45° 56.2° 49.6° - - -
3/29 4:10am 39 13 G 16 50° 85% - - 46° 56.2° 49.6° - - -
3/29 4:00am 35 14 G 17 50° 84% - - 46° 56.2° 49.7° - - -
3/29 3:50am 37 16 G 19 51° 82% - - 46° 56.2° 50.3° - - -
3/29 3:40am 37 12 G 17 53° 71% - - 44° 56.2° 51.4° - - -
3/29 3:30am 33 13 G 17 53° 71% - - 44° 56.2° 51.4° - - -
3/29 3:20am 34 14 G 20 52° 75% - - 45° 56.2° 51.4° - - -
3/29 3:10am 33 13 G 17 53° 74% - - 45° 56.2° 51.5° - - -
3/29 3:00am 24 13 G 19 53° 75% - - 45° 56.2° 51.5° - - -
3/29 2:50am 32 14 G 18 54° 72% - - 45° 56.2° 51.5° - - -
3/29 2:40am 36 13 G 17 55° 68% - - 44° 56.2° 51.5° - - -
3/29 2:30am 38 14 G 19 53° 76% - - 45° 55.6° 51.5° - - -
3/29 2:20am 33 14 G 19 52° 78% - - 46° 55.6° 51.7° - - -
3/29 2:10am 26 13 G 18 53° 76% - - 46° 55.6° 51.7° - - -
3/29 2:00am 20 11 G 15 54° 70% - - 44° 55.6° 51.7° - - -
3/29 1:50am 31 13 G 17 52° 78% - - 46° 55.6° 51.7° - - -
3/29 1:40am 34 12 G 16 53° 74% - - 45° 55.6° 51.8° - - -
3/29 1:30am 19 12 G 16 54° 72% - - 45° 55.6° 52° - - -
3/29 1:20am 19 10 G 14 54° 74% - - 45° 55.6° 52° - - -
3/29 1:10am 14 13 G 17 54° 74% - - 46° 55.6° 52° - - -
3/29 1:00am 21 13 G 16 53° 76% - - 46° 55.6° 52° - - -
3/29 12:50am 18 12 G 17 52° 81% - - 47° 55.6° 52° - - -
3/29 12:40am 21 12 G 17 53° 79% - - 47° 55.6° 52.4° - - -
3/29 12:30am 32 14 G 18 54° 76% - - 46° 55.6° 52.6° - - -
3/29 12:20am 25 11 G 15 54° 72% - - 46° 55.6° 54.2° - - -
3/29 12:10am 22 12 G 15 55° 71% - - 46° 55.6° 54.2° - - -
3/29 12:00am 22 12 G 15 54° 74% - - 46° 70° 47.5° - - -
3/28 11:50pm 21 10 G 13 55° 72% - - 46° 70° 47.5° - - -
3/28 11:40pm 19 11 G 14 55° 72% - - 46° 70° 47.5° - - -
3/28 11:30pm 33 10 G 13 55° 70% - - 45° 70° 47.5° - - -
3/28 11:20pm 26 9 G 12 56° 67% - - 45° 70° 47.5° - - -
3/28 11:10pm 32 9 G 12 55° 68% - - 45° 70° 47.5° - - -
3/28 11:00pm 28 10 G 13 55° 70% - - 46° 70° 47.5° - - -
3/28 10:50pm 26 10 G 13 56° 68% - - 45° 70° 47.5° - - -
3/28 10:40pm 26 11 G 13 56° 68% - - 45° 70° 47.5° - - -
3/28 10:30pm 26 10 G 12 56° 66% - - 45° 70° 47.5° - - -
3/28 10:20pm 21 9 G 12 57° 63% - - 45° 70° 47.5° - - -
3/28 10:10pm 29 10 G 12 57° 63% - - 45° 70° 47.5° - - -
3/28 10:00pm 35 10 G 12 57° 62% - - 45° 70° 47.5° - - -
3/28 9:50pm 33 10 G 12 57° 66% - - 46° 70° 47.5° - - -
3/28 9:40pm 34 10 G 12 56° 67% - - 46° 70° 47.5° - - -
3/28 9:30pm 33 7 G 11 57° 64% - - 44° 70° 47.5° - - -
3/28 9:20pm 31 4 G 6 57° 64% - - 44° 70° 47.5° - - -
3/28 9:10pm 14 3 G 5 59° 54% - - 42° 70° 47.5° - - -
3/28 9:00pm 352 2 G 3 60° 51% - - 42° 70° 47.5° - - -
3/28 8:50pm 356 3 G 5 59° 54% - - 42° 70° 47.5° - - -
3/28 8:40pm 21 4 G 5 59° 55% - - 43° 70° 47.5° - - -
3/28 8:30pm 350 2 G 5 61° 50% - - 42° 70° 47.5° - - -
3/28 8:20pm 325 3 G 4 61° 49% - - 42° 70° 47.5° - - -
3/28 8:10pm 1 2 G 4 61° 52% - - 43° 70° 47.5° - - -
3/28 8:00pm 350 0 G 3 61° 51% - - 43° 70° 47.5° - - -
3/28 7:50pm 203 0 G 1 61° 50% - - 42° 70° 47.5° - - -
3/28 7:40pm 351 0 G 3 61° 50% - - 43° 70° 47.5° - - -
3/28 7:30pm 228 1 G 3 62° 49% - - 42° 70° 47.5° - - -
3/28 7:20pm 246 2 G 4 62° 47% - - 42° 70° 47.5° - - -
3/28 7:10pm 254 1 G 2 62° 48% - - 42° 70° 47.5° - - -
3/28 7:00pm 221 2 G 4 63° 48% - - 42° 70° 47.5° - - -
3/28 6:50pm 228 3 G 6 63° 47% - - 42° 70° 47.5° - - -
3/28 6:40pm 205 6 G 8 64° 46% - - 42° 70° 47.5° - - -
3/28 6:30pm 209 7 G 10 64° 43% - - 42° 70° 47.5° - - -
3/28 6:20pm 227 7 G 10 65° 42% - - 41° 70° 47.5° - - -
3/28 6:10pm 210 9 G 11 65° 42% - - 42° 70° 47.5° - - -
3/28 6:00pm 215 8 G 12 65° 41% - - 41° 70° 47.5° - - -
3/28 5:50pm 217 11 G 15 65° 40% - - 41° 70° 47.5° - - -
3/28 5:40pm 214 11 G 14 66° 40% - - 41° 70° 47.5° - - -
3/28 5:30pm 222 9 G 14 66° 41% - - 42° 70° 47.5° - - -
3/28 5:20pm 220 12 G 17 66° 41% - - 42° 70° 47.5° - - -
3/28 5:10pm 224 12 G 18 66° 42% - - 42° 70° 47.5° - - -
3/28 5:00pm 216 11 G 18 67° 43% - - 44° 70° 47.5° - - -
3/28 4:50pm 214 13 G 20 67° 44% - - 44° 70° 47.5° - - -
3/28 4:40pm 219 13 G 18 68° 42% - - 43° 70° 47.5° - - -
3/28 4:30pm 217 12 G 19 68° 39% - - 42° 70° 47.5° - - -
3/28 4:20pm 226 12 G 18 68° 38% - - 41° 70° 47.5° - - -
3/28 4:10pm 216 13 G 19 68° 39% - - 42° 70° 47.5° - - -
3/28 4:00pm 214 13 G 20 68° 42% - - 44° 70° 47.5° - - -
3/28 3:50pm 222 12 G 18 68° 41% - - 44° 70° 47.5° - - -
3/28 3:40pm 229 10 G 20 69° 36% - - 41° 70° 47.5° - - -
3/28 3:30pm 230 10 G 16 69° 39% - - 43° 70° 47.5° - - -
3/28 3:20pm 219 13 G 18 69° 41% - - 44° 70° 47.5° - - -
3/28 3:10pm 219 11 G 17 69° 42% - - 45° 70° 47.5° - - -
3/28 3:00pm 211 12 G 17 69° 40% - - 44° 70° 47.5° - - -
3/28 2:50pm 219 11 G 18 69° 39% - - 43° 70° 47.5° - - -
3/28 2:40pm 216 11 G 15 69° 41% - - 44° 69.5° 47.5° - - -
3/28 2:30pm 216 11 G 19 69° 44% - - 46° 69.5° 47.5° - - -
3/28 2:20pm 210 10 G 14 69° 45% - - 47° 69.5° 47.5° - - -
3/28 2:10pm 215 11 G 17 68° 46% - - 46° 69.5° 47.5° - - -
3/28 2:00pm 211 12 G 18 68° 48% - - 48° 69.5° 47.5° - - -
3/28 1:50pm 219 12 G 16 68° 51% - - 49° 69.5° 47.5° - - -
3/28 1:40pm 214 11 G 16 67° 51% - - 49° 69.5° 47.5° - - -
3/28 1:30pm 217 11 G 16 67° 51% - - 48° 69.5° 47.5° - - -
3/28 1:20pm 217 13 G 19 67° 52% - - 49° 69.5° 47.5° - - -
3/28 1:10pm 218 12 G 17 67° 54% - - 50° 69.5° 47.5° - - -
3/28 1:00pm 216 12 G 18 67° 55% - - 50° 69.5° 47.5° - - -
3/28 12:50pm 219 12 G 18 66° 55% - - 50° 69.5° 47.5° - - -
3/28 12:40pm 215 13 G 17 66° 54% - - 49° 69.5° 47.5° - - -
3/28 12:30pm 220 11 G 17 67° 47% - - 46° 69.5° 47.5° - - -
3/28 12:20pm 219 12 G 17 66° 45% - - 44° 69.5° 47.5° - - -
3/28 12:10pm 219 13 G 17 66° 47% - - 46° 69.5° 47.5° - - -
3/28 12:00pm 210 12 G 18 67° 48% - - 46° 69.5° 47.5° - - -
3/28 11:50am 219 12 G 18 66° 50% - - 47° 69.5° 47.5° - - -
3/28 11:40am 230 11 G 18 66° 50% - - 47° 69.5° 47.5° - - -
3/28 11:30am 224 12 G 16 67° 47% - - 46° 69.5° 47.5° - - -
3/28 11:20am 215 12 G 18 67° 48% - - 46° 69.5° 47.5° - - -
3/28 11:10am 279 6 G 14 69° 26% - - 32° 69.5° 47.5° - - -
3/28 11:00am 254 7 G 14 68° 25% - - 32° 69.2° 47.5° - - -
3/28 10:50am 231 7 G 19 68° 28% - - 33° 68.5° 47.5° - - -
3/28 10:40am 196 8 G 13 66° 39% - - 40° 67.7° 47.5° - - -
3/28 10:30am 180 7 G 10 64° 57% - - 48° 65.3° 47.5° - - -
3/28 10:20am 208 8 G 11 62° 59% - - 48° 63.1° 47.5° - - -
3/28 10:10am 201 5 G 9 61° 60% - - 47° 62.6° 47.5° - - -
3/28 10:00am 183 2 G 5 60° 63% - - 47° 60.7° 47.5° - - -
3/28 9:50am 173 2 G 5 59° 65% - - 47° 59.6° 47.5° - - -
3/28 9:40am 45 2 G 7 58° 69% - - 48° 59.4° 47.5° - - -
3/28 9:30am 45 5 G 7 57° 71% - - 48° 58.4° 47.5° - - -
3/28 9:20am 43 5 G 6 56° 71% - - 47° 56.7° 47.5° - - -
3/28 9:10am 34 6 G 7 55° 72% - - 46° 55.5° 47.5° - - -
3/28 9:00am 39 7 G 9 54° 75% - - 46° 54.3° 47.5° - - -
3/28 8:50am 35 6 G 8 53° 76% - - 46° 54.1° 47.5° - - -
3/28 8:40am 55 6 G 9 52° 77% - - 45° 54.1° 47.5° - - -
3/28 8:30am 43 8 G 14 52° 80% - - 46° 54.1° 47.5° - - -
3/28 8:20am 37 12 G 15 51° 80% - - 45° 54.1° 47.5° - - -
3/28 8:10am 41 10 G 14 50° 83% - - 45° 54.1° 47.5° - - -
3/28 8:00am 39 9 G 10 50° 86% - - 46° 54.1° 47.5° - - -
3/28 7:50am 53 9 G 12 49° 89% - - 46° 54.1° 47.5° - - -
3/28 7:40am 47 11 G 16 48° 91% - - 46° 54.1° 47.5° - - -
3/28 7:30am 35 11 G 14 48° 92% - - 46° 54.1° 47.5° - - -
3/28 7:20am 36 11 G 14 48° 92% - - 46° 54.1° 47.5° - - -
3/28 7:10am 38 16 G 20 48° 93% - - 46° 54.1° 47.5° - - -
3/28 7:00am 37 15 G 20 48° 94% - - 46° 54.1° 47.5° - - -
3/28 6:50am 40 14 G 17 48° 94% - - 46° 54.1° 47.5° - - -
3/28 6:40am 36 13 G 16 48° 94% - - 46° 54.1° 47.7° - - -
3/28 6:30am 30 10 G 13 48° 94% - - 47° 54.1° 47.9° - - -
3/28 6:20am 32 10 G 13 48° 93% - - 47° 54.1° 48° - - -
3/28 6:10am 27 10 G 13 49° 94% - - 47° 54.1° 48.1° - - -
3/28 6:00am 22 10 G 12 49° 94% - - 47° 54.1° 48.3° - - -